createdAt,value
2023-04-18T00:01:50.292Z,16.30
2023-04-18T00:04:19.250Z,15.77
2023-04-18T00:06:49.709Z,15.25
2023-04-18T00:09:17.207Z,15.30
2023-04-18T00:11:45.287Z,14.50
2023-04-18T00:14:13.684Z,15.38
2023-04-18T00:16:42.386Z,13.18
2023-04-18T00:19:10.267Z,13.82
2023-04-18T00:21:37.993Z,13.90
2023-04-18T00:24:05.669Z,15.10
2023-04-18T00:26:33.049Z,14.23
2023-04-18T00:29:00.599Z,15.35
2023-04-18T00:31:28.145Z,14.20
2023-04-18T00:33:55.648Z,12.00
2023-04-18T00:36:23.025Z,14.35
2023-04-18T00:38:50.481Z,13.88
2023-04-18T00:41:17.910Z,16.25
2023-04-18T00:43:45.323Z,14.98
2023-04-18T00:46:12.828Z,14.60
2023-04-18T00:48:40.471Z,15.23
2023-04-18T00:51:07.897Z,16.23
2023-04-18T00:53:35.337Z,14.73
2023-04-18T00:56:02.870Z,14.38
2023-04-18T00:58:30.289Z,15.97
2023-04-18T01:00:57.774Z,13.75
2023-04-18T01:03:28.307Z,12.55
2023-04-18T01:05:57.533Z,15.00
2023-04-18T01:08:25.003Z,14.55
2023-04-18T01:10:52.448Z,12.97
2023-04-18T01:13:20.661Z,15.50
2023-04-18T01:15:48.963Z,13.70
2023-04-18T01:18:16.963Z,13.05
2023-04-18T01:20:48.107Z,12.77
2023-04-18T01:23:16.130Z,13.67
2023-04-18T01:25:43.903Z,14.35
2023-04-18T01:28:11.627Z,14.35
2023-04-18T01:30:39.158Z,13.95
2023-04-18T01:33:07.035Z,13.85
2023-04-18T01:35:34.531Z,13.80
2023-04-18T01:38:02.156Z,16.52
2023-04-18T01:40:30.320Z,16.40
2023-04-18T01:42:57.803Z,12.93
2023-04-18T01:45:25.447Z,13.88
2023-04-18T01:47:53.078Z,13.63
2023-04-18T01:50:20.671Z,14.07
2023-04-18T01:52:48.077Z,14.70
2023-04-18T01:55:15.579Z,14.15
2023-04-18T01:57:42.971Z,14.95
2023-04-18T02:00:11.193Z,14.93
2023-04-18T02:02:38.838Z,14.27
2023-04-18T02:05:09.223Z,15.20
2023-04-18T02:07:36.844Z,12.77
2023-04-18T02:10:04.388Z,14.35
2023-04-18T02:12:32.733Z,13.40
2023-04-18T02:15:00.235Z,12.05
2023-04-18T02:17:28.473Z,12.98
2023-04-18T02:19:55.909Z,11.20
2023-04-18T02:22:23.353Z,12.73
2023-04-18T02:24:50.783Z,13.53
2023-04-18T02:27:18.648Z,11.52
2023-04-18T02:29:46.324Z,13.20
2023-04-18T02:32:13.922Z,12.88
2023-04-18T02:34:41.630Z,11.82
2023-04-18T02:37:09.121Z,13.87
2023-04-18T02:39:36.546Z,12.50
2023-04-18T02:42:03.999Z,12.57
2023-04-18T02:44:31.422Z,11.00
2023-04-18T02:46:58.806Z,16.55
2023-04-18T02:49:26.196Z,12.73
2023-04-18T02:51:56.847Z,11.88
2023-04-18T02:54:24.922Z,11.98
2023-04-18T02:56:53.301Z,11.50
2023-04-18T02:59:20.838Z,11.32
2023-04-18T03:01:48.372Z,11.83
2023-04-18T03:04:16.152Z,10.95
2023-04-18T03:06:43.854Z,10.35
2023-04-18T03:09:11.405Z,11.05
2023-04-18T03:11:38.926Z,12.40
2023-04-18T03:14:06.501Z,11.47
2023-04-18T03:16:33.983Z,12.90
2023-04-18T03:19:01.622Z,10.98
2023-04-18T03:21:29.018Z,12.18
2023-04-18T03:23:56.551Z,12.13
2023-04-18T03:26:25.276Z,12.47
2023-04-18T03:28:52.879Z,11.52
2023-04-18T03:31:20.579Z,10.77
2023-04-18T03:33:48.425Z,13.02
2023-04-18T03:36:19.340Z,11.23
2023-04-18T03:38:46.766Z,10.73
2023-04-18T03:41:14.154Z,10.80
2023-04-18T03:43:41.569Z,13.68
2023-04-18T03:46:08.990Z,10.93
2023-04-18T03:48:37.376Z,13.63
2023-04-18T03:51:06.346Z,12.43
2023-04-18T03:53:33.824Z,12.13
2023-04-18T03:56:01.255Z,10.35
2023-04-18T03:58:28.634Z,10.40
2023-04-18T04:00:56.174Z,10.93
2023-04-18T04:03:23.869Z,11.40
2023-04-18T04:05:51.321Z,12.73
2023-04-18T04:08:18.775Z,12.25
2023-04-18T04:10:46.189Z,10.75
2023-04-18T04:13:13.612Z,10.27
2023-04-18T04:15:41.119Z,12.37
2023-04-18T04:18:09.089Z,11.60
2023-04-18T04:20:36.596Z,10.82
2023-04-18T04:23:04.045Z,10.85
2023-04-18T04:25:33.292Z,10.35
2023-04-18T04:28:01.583Z,13.67
2023-04-18T04:30:29.027Z,11.13
2023-04-18T04:32:56.536Z,10.15
2023-04-18T04:35:23.998Z,10.55
2023-04-18T04:37:51.803Z,10.40
2023-04-18T04:40:19.233Z,10.43
2023-04-18T04:42:49.147Z,8.93
2023-04-18T04:45:17.440Z,8.20
2023-04-18T04:47:45.008Z,8.82
2023-04-18T04:50:15.529Z,8.70
2023-04-18T04:52:43.253Z,9.10
2023-04-18T04:55:11.109Z,8.75
2023-04-18T04:57:38.602Z,9.05
2023-04-18T05:00:09.033Z,7.65
2023-04-18T05:02:36.747Z,7.72
2023-04-18T05:05:04.693Z,7.90
2023-04-18T05:07:32.089Z,9.05
2023-04-18T05:09:59.651Z,8.73
2023-04-18T05:12:27.116Z,9.20
2023-04-18T05:14:54.530Z,6.88
2023-04-18T05:17:28.348Z,11.20
2023-04-18T05:19:55.909Z,8.30
2023-04-18T05:22:23.395Z,7.20
2023-04-18T05:24:50.852Z,8.02
2023-04-18T05:27:18.311Z,7.63
2023-04-18T05:29:47.637Z,9.73
2023-04-18T05:32:15.631Z,7.32
2023-04-18T05:34:43.265Z,7.40
2023-04-18T05:37:10.789Z,7.30
2023-04-18T05:39:38.394Z,7.60
2023-04-18T05:42:05.876Z,8.83
2023-04-18T05:44:33.355Z,8.15
2023-04-18T05:47:01.102Z,8.10
2023-04-18T05:49:28.518Z,7.55
2023-04-18T05:51:56.643Z,9.90
2023-04-18T05:54:27.879Z,8.13
2023-04-18T05:56:57.059Z,8.48
2023-04-18T05:59:24.884Z,10.35
2023-04-18T06:01:52.586Z,8.48
2023-04-18T06:04:21.238Z,8.07
2023-04-18T06:06:49.634Z,6.97
2023-04-18T06:09:17.740Z,8.27
2023-04-18T06:11:45.712Z,7.60
2023-04-18T06:14:13.792Z,7.53
2023-04-18T06:16:43.727Z,7.45
2023-04-18T06:19:11.270Z,8.17
2023-04-18T06:21:39.505Z,6.20
2023-04-18T06:24:07.273Z,5.60
2023-04-18T06:26:34.819Z,7.18
2023-04-18T06:29:02.269Z,7.20
2023-04-18T06:31:30.062Z,8.23
2023-04-18T06:33:57.897Z,9.40
2023-04-18T06:36:26.900Z,6.25
2023-04-18T06:38:54.420Z,6.88
2023-04-18T06:41:21.861Z,7.65
2023-04-18T06:44:02.203Z,10.07
2023-04-18T06:46:31.460Z,9.15
2023-04-18T06:48:58.965Z,9.75
2023-04-18T06:51:27.456Z,7.07
2023-04-18T06:53:55.335Z,7.25
2023-04-18T06:56:22.770Z,7.07
2023-04-18T06:58:51.698Z,10.40
2023-04-18T07:01:19.858Z,8.07
2023-04-18T07:03:47.829Z,6.60
2023-04-18T07:06:16.086Z,6.85
2023-04-18T07:08:43.512Z,8.13
2023-04-18T07:11:18.410Z,6.47
2023-04-18T07:13:47.585Z,9.30
2023-04-18T07:16:15.450Z,6.88
2023-04-18T07:18:42.894Z,7.97
2023-04-18T07:21:10.366Z,7.73
2023-04-18T07:23:37.972Z,7.15
2023-04-18T07:26:05.905Z,6.10
2023-04-18T07:28:33.642Z,7.80
2023-04-18T07:31:03.109Z,8.68
2023-04-18T07:33:34.023Z,10.10
2023-04-18T07:36:02.911Z,10.30
2023-04-18T07:38:30.326Z,8.88
2023-04-18T07:40:58.568Z,9.57
2023-04-18T07:43:26.927Z,10.27
2023-04-18T07:45:54.504Z,10.30
2023-04-18T07:48:22.799Z,9.40
2023-04-18T07:50:50.900Z,9.70
2023-04-18T07:53:18.573Z,8.68
2023-04-18T07:55:46.637Z,9.90
2023-04-18T07:58:14.752Z,7.70
2023-04-18T08:00:43.902Z,6.50
2023-04-18T08:03:12.318Z,6.85
2023-04-18T08:05:40.605Z,6.95
2023-04-18T08:08:08.466Z,6.32
2023-04-18T08:10:39.008Z,6.63
2023-04-18T08:13:06.990Z,6.40
2023-04-18T08:15:34.469Z,7.03
2023-04-18T08:18:02.135Z,7.85
2023-04-18T08:20:29.662Z,8.57
2023-04-18T08:23:07.703Z,8.27
2023-04-18T08:25:36.433Z,5.68
2023-04-18T08:28:04.365Z,7.28
2023-04-18T08:30:31.926Z,6.30
2023-04-18T08:33:02.329Z,7.15
2023-04-18T08:35:32.222Z,4.83
2023-04-18T08:37:59.956Z,4.90
2023-04-18T08:40:27.501Z,6.18
2023-04-18T08:42:54.979Z,18.35
2023-04-18T08:45:22.465Z,5.97
2023-04-18T08:47:49.982Z,5.30
2023-04-18T08:50:18.492Z,5.88
2023-04-18T08:52:49.618Z,5.57
2023-04-18T08:55:19.204Z,5.38
2023-04-18T08:57:47.555Z,5.60
2023-04-18T09:00:16.620Z,5.17
2023-04-18T09:02:45.155Z,6.38
2023-04-18T09:05:13.376Z,5.53
2023-04-18T09:07:41.236Z,5.80
2023-04-18T09:10:09.956Z,11.00
2023-04-18T09:12:42.522Z,4.97
2023-04-18T09:15:10.776Z,6.35
2023-04-18T09:17:41.460Z,4.75
2023-04-18T09:20:12.335Z,5.15
2023-04-18T09:22:48.775Z,5.38
2023-04-18T09:25:27.356Z,7.63
2023-04-18T09:27:55.318Z,6.28
2023-04-18T09:30:33.027Z,7.80
2023-04-18T09:33:01.593Z,7.15
2023-04-18T09:35:29.294Z,6.47
2023-04-18T09:37:57.019Z,6.20
2023-04-18T09:40:24.766Z,7.57
2023-04-18T09:42:55.916Z,9.52
2023-04-18T09:45:23.694Z,6.40
2023-04-18T09:47:51.524Z,6.85
2023-04-18T09:50:20.725Z,8.43
2023-04-18T09:52:48.680Z,10.27
2023-04-18T09:55:17.476Z,8.27
2023-04-18T09:57:45.885Z,9.00
2023-04-18T10:00:14.360Z,9.85
2023-04-18T10:02:46.022Z,7.50
2023-04-18T10:05:13.578Z,8.43
2023-04-18T10:07:41.102Z,7.70
2023-04-18T10:10:08.878Z,7.75
2023-04-18T10:12:36.957Z,10.00
2023-04-18T10:15:04.639Z,9.23
2023-04-18T10:17:52.579Z,10.02
2023-04-18T10:20:29.010Z,10.65
2023-04-18T10:22:56.875Z,7.85
2023-04-18T10:25:39.622Z,11.00
2023-04-18T10:28:07.427Z,8.07
2023-04-18T10:30:41.238Z,9.50
2023-04-18T10:33:30.558Z,9.02
2023-04-18T10:35:59.538Z,9.77
2023-04-18T10:38:27.339Z,7.90
2023-04-18T10:41:01.442Z,8.23
2023-04-18T10:43:28.898Z,9.88
2023-04-18T10:46:27.998Z,9.68
2023-04-18T11:04:45.108Z,9.57
2023-04-18T11:07:12.538Z,9.05
2023-04-18T11:09:40.520Z,10.27
2023-04-18T11:12:12.077Z,10.43
2023-04-18T11:14:46.576Z,13.77
2023-04-18T11:17:27.036Z,12.38
2023-04-18T11:20:01.476Z,11.93
2023-04-18T11:22:29.787Z,10.05
2023-04-18T11:25:00.967Z,11.83
2023-04-18T11:27:30.050Z,10.80
2023-04-18T11:29:57.725Z,11.68
2023-04-18T11:32:25.234Z,13.90
2023-04-18T11:34:53.658Z,13.20
2023-04-18T11:37:21.314Z,12.43
2023-04-18T11:39:48.912Z,10.45
2023-04-18T11:42:16.724Z,11.75
2023-04-18T11:44:46.291Z,10.25
2023-04-18T11:47:26.656Z,12.73
2023-04-18T11:50:12.676Z,11.10
2023-04-18T11:52:40.991Z,9.82
2023-04-18T11:55:17.505Z,11.43
2023-04-18T11:57:54.975Z,12.35
2023-04-18T12:00:31.898Z,11.02
2023-04-18T12:02:59.705Z,10.47
2023-04-18T12:05:28.088Z,12.35
2023-04-18T12:07:56.543Z,11.35
2023-04-18T12:10:25.410Z,11.55
2023-04-18T12:12:56.030Z,14.55
2023-04-18T12:15:25.313Z,11.83
2023-04-18T12:17:52.890Z,10.55
2023-04-18T12:20:20.410Z,11.93
2023-04-18T12:22:51.414Z,11.38
2023-04-18T12:25:27.697Z,12.32
2023-04-18T12:27:55.728Z,13.20
2023-04-18T12:30:23.809Z,15.52
2023-04-18T12:32:51.754Z,13.25
2023-04-18T12:35:19.476Z,13.68
2023-04-18T12:37:50.898Z,11.02
2023-04-18T12:40:22.815Z,12.83
2023-04-18T12:42:51.039Z,13.80
2023-04-18T12:45:18.825Z,11.32
2023-04-18T12:47:46.919Z,13.27
2023-04-18T12:50:18.821Z,12.50
2023-04-18T12:52:46.397Z,14.23
2023-04-18T12:55:13.993Z,12.10
2023-04-18T12:57:42.406Z,12.65
2023-04-18T13:00:13.657Z,14.73
2023-04-18T13:02:42.199Z,15.93
2023-04-18T13:05:10.445Z,19.30
2023-04-18T13:07:38.073Z,19.90
2023-04-18T13:10:05.689Z,17.88
2023-04-18T13:12:33.136Z,14.52
2023-04-18T13:15:00.820Z,15.05
2023-04-18T13:17:28.281Z,12.33
2023-04-18T13:19:55.791Z,15.27
2023-04-18T13:22:23.426Z,16.92
2023-04-18T13:24:50.800Z,17.85
2023-04-18T13:27:18.348Z,19.45
2023-04-18T13:29:45.861Z,25.67
2023-04-18T13:32:13.624Z,23.23
2023-04-18T13:34:44.814Z,25.80
2023-04-18T13:37:12.495Z,23.45
2023-04-18T13:39:40.305Z,19.00
2023-04-18T13:42:07.889Z,31.73
2023-04-18T13:44:36.160Z,74.75
2023-04-18T13:47:04.052Z,20.08
2023-04-18T13:49:31.590Z,30.27
2023-04-18T13:51:59.191Z,13.65
2023-04-18T13:54:30.101Z,13.90
2023-04-18T13:56:57.947Z,12.20
2023-04-18T13:59:25.628Z,9.93
2023-04-18T14:01:54.566Z,11.38
2023-04-18T14:04:22.884Z,11.05
2023-04-18T14:06:50.814Z,10.63
2023-04-18T14:09:18.291Z,9.88
2023-04-18T14:11:45.872Z,10.95
2023-04-18T14:14:13.313Z,12.30
2023-04-18T14:16:40.724Z,10.05
2023-04-18T14:19:08.119Z,12.77
2023-04-18T14:21:35.943Z,17.13
2023-04-18T14:24:03.833Z,14.77
2023-04-18T14:26:31.312Z,15.88
2023-04-18T14:28:59.092Z,13.98
2023-04-18T14:31:28.173Z,24.77
2023-04-18T14:33:55.774Z,19.08
2023-04-18T14:36:23.190Z,19.30
2023-04-18T14:38:50.619Z,15.98
2023-04-18T14:41:18.065Z,12.93
2023-04-18T14:43:45.532Z,22.57
2023-04-18T14:46:13.652Z,29.40
2023-04-18T14:48:41.141Z,20.13
2023-04-18T14:51:08.632Z,12.32
2023-04-18T14:53:36.108Z,12.57
2023-04-18T14:56:03.508Z,13.60
2023-04-18T14:58:31.315Z,14.57
2023-04-18T15:00:58.986Z,17.58
2023-04-18T15:03:26.662Z,14.10
2023-04-18T15:05:54.728Z,14.80
2023-04-18T15:08:22.460Z,16.33
2023-04-18T15:10:49.925Z,53.05
2023-04-18T15:13:17.424Z,16.75
2023-04-18T15:15:51.371Z,22.08
2023-04-18T15:18:18.980Z,9.68
2023-04-18T15:20:47.354Z,13.47
2023-04-18T15:23:15.078Z,19.35
2023-04-18T15:25:42.916Z,25.80
2023-04-18T15:28:10.421Z,20.55
2023-04-18T15:30:37.817Z,16.15
2023-04-18T15:33:05.454Z,21.93
2023-04-18T15:35:32.851Z,17.30
2023-04-18T15:38:00.359Z,10.35
2023-04-18T15:40:27.779Z,10.40
2023-04-18T15:42:56.112Z,9.52
2023-04-18T15:45:23.587Z,10.50
2023-04-18T15:47:51.651Z,10.93
2023-04-18T15:50:19.222Z,17.58
2023-04-18T15:52:46.723Z,11.13
2023-04-18T15:55:14.194Z,15.07
2023-04-18T15:57:41.892Z,15.70
2023-04-18T16:00:15.810Z,10.18
2023-04-18T16:02:44.223Z,9.77
2023-04-18T16:05:12.521Z,13.35
2023-04-18T16:07:40.611Z,12.95
2023-04-18T16:10:12.757Z,14.47
2023-04-18T16:12:40.678Z,14.35
2023-04-18T16:15:09.015Z,7.97
2023-04-18T16:17:36.902Z,12.07
2023-04-18T16:20:06.328Z,10.13
2023-04-18T16:22:34.007Z,9.83
2023-04-18T16:25:01.476Z,10.65
2023-04-18T16:27:29.065Z,9.20
2023-04-18T16:29:56.792Z,17.40
2023-04-18T16:32:24.277Z,9.88
2023-04-18T16:34:51.816Z,10.27
2023-04-18T16:37:19.378Z,17.33
2023-04-18T16:39:46.791Z,15.70
2023-04-18T16:42:15.782Z,15.75
2023-04-18T16:44:45.238Z,9.10
2023-04-18T16:47:12.822Z,14.27
2023-04-18T16:49:41.386Z,35.22
2023-04-18T16:52:09.117Z,29.42
2023-04-18T16:54:36.605Z,31.67
2023-04-18T16:57:04.790Z,12.98
2023-04-18T16:59:32.400Z,19.30
2023-04-18T17:02:10.438Z,23.98
2023-04-18T17:04:38.312Z,14.30
2023-04-18T17:07:05.978Z,17.73
2023-04-18T17:09:33.341Z,13.70
2023-04-18T17:12:01.894Z,12.40
2023-04-18T17:14:29.493Z,9.65
2023-04-18T17:16:56.909Z,14.40
2023-04-18T17:19:24.390Z,12.57
2023-04-18T17:21:52.090Z,11.65
2023-04-18T17:24:22.460Z,10.23
2023-04-18T17:26:49.903Z,13.88
2023-04-18T17:29:18.433Z,8.98
2023-04-18T17:31:45.934Z,9.73
2023-04-18T17:34:14.221Z,7.68
2023-04-18T17:36:41.767Z,6.80
2023-04-18T17:39:09.872Z,7.43
2023-04-18T17:41:38.175Z,9.43
2023-04-18T17:44:07.654Z,6.25
2023-04-18T17:46:35.274Z,8.10
2023-04-18T17:49:02.962Z,7.03
2023-04-18T17:51:31.134Z,6.60
2023-04-18T17:53:58.644Z,7.43
2023-04-18T17:56:26.937Z,6.78
2023-04-18T17:58:56.587Z,8.95
2023-04-18T18:01:26.135Z,11.03
2023-04-18T18:03:54.124Z,9.10
2023-04-18T18:06:22.372Z,11.90
2023-04-18T18:08:50.772Z,10.85
2023-04-18T18:11:18.439Z,10.68
2023-04-18T18:13:46.756Z,9.97
2023-04-18T18:16:14.479Z,9.52
2023-04-18T18:18:42.687Z,8.27
2023-04-18T18:21:11.454Z,6.82
2023-04-18T18:23:39.477Z,8.20
2023-04-18T18:26:07.192Z,7.20
2023-04-18T18:28:35.140Z,6.97
2023-04-18T18:31:03.531Z,8.00
2023-04-18T18:33:31.208Z,7.43
2023-04-18T18:35:58.914Z,6.00
2023-04-18T18:38:26.678Z,6.80
2023-04-18T18:40:54.353Z,6.80
2023-04-18T18:43:26.278Z,8.20
2023-04-18T18:45:53.948Z,10.32
2023-04-18T18:48:22.153Z,6.97
2023-04-18T18:50:51.437Z,10.17
2023-04-18T18:53:19.636Z,8.50
2023-04-18T18:55:47.112Z,8.20
2023-04-18T18:58:15.009Z,7.32
2023-04-18T19:00:42.406Z,7.28
2023-04-18T19:03:10.620Z,7.60
2023-04-18T19:05:38.247Z,7.80
2023-04-18T19:08:06.638Z,6.53
2023-04-18T19:10:34.959Z,7.13
2023-04-18T19:13:03.393Z,10.32
2023-04-18T19:15:31.653Z,7.03
2023-04-18T19:18:00.246Z,6.75
2023-04-18T19:20:29.349Z,6.72
2023-04-18T19:22:57.176Z,6.68
2023-04-18T19:25:25.048Z,7.30
2023-04-18T19:27:52.955Z,7.10
2023-04-18T19:30:20.586Z,7.38
2023-04-18T19:32:48.308Z,8.98
2023-04-18T19:35:17.124Z,7.47
2023-04-18T19:37:45.026Z,7.15
2023-04-18T19:40:14.262Z,8.43
2023-04-18T19:42:42.101Z,7.38
2023-04-18T19:45:11.884Z,7.90
2023-04-18T19:47:39.757Z,7.70
2023-04-18T19:50:08.060Z,8.23
2023-04-18T19:52:35.946Z,8.37
2023-04-18T19:55:04.006Z,7.38
2023-04-18T19:57:32.011Z,7.13
2023-04-18T19:59:59.725Z,7.90
2023-04-18T20:02:27.593Z,9.05
2023-04-18T20:04:55.824Z,11.60
2023-04-18T20:07:26.009Z,10.15
2023-04-18T20:09:54.515Z,10.05
2023-04-18T20:12:21.913Z,10.80
2023-04-18T20:14:49.473Z,9.98
2023-04-18T20:17:17.230Z,11.37
2023-04-18T20:19:47.128Z,12.88
2023-04-18T20:22:15.288Z,12.98
2023-04-18T20:24:45.044Z,10.88
2023-04-18T20:27:12.728Z,13.43
2023-04-18T20:29:40.488Z,13.57
2023-04-18T20:32:08.594Z,14.00
2023-04-18T20:34:36.273Z,11.70
2023-04-18T20:37:07.418Z,9.80
2023-04-18T20:39:35.144Z,13.38
2023-04-18T20:42:04.310Z,13.60
2023-04-18T20:44:34.440Z,11.60
2023-04-18T20:47:02.329Z,12.00
2023-04-18T20:49:29.907Z,10.77
2023-04-18T20:51:57.678Z,12.40
2023-04-18T20:54:25.262Z,14.53
2023-04-18T20:56:52.936Z,12.93
2023-04-18T20:59:20.613Z,14.45
2023-04-18T21:01:48.068Z,12.52
2023-04-18T21:04:15.975Z,11.50
2023-04-18T21:06:44.107Z,14.23
2023-04-18T21:09:11.734Z,12.38
2023-04-18T21:11:42.894Z,12.52
2023-04-18T21:14:10.273Z,12.85
2023-04-18T21:16:39.788Z,12.88
2023-04-18T21:19:08.373Z,12.57
2023-04-18T21:21:36.364Z,13.45
2023-04-18T21:24:03.890Z,14.00
2023-04-18T21:26:31.399Z,12.43
2023-04-18T21:28:59.556Z,12.88
2023-04-18T21:31:27.713Z,14.87
2023-04-18T21:33:55.762Z,12.10
2023-04-18T21:36:23.557Z,13.80
2023-04-18T21:38:54.256Z,15.02
2023-04-18T21:41:21.762Z,13.95
2023-04-18T21:43:49.879Z,15.47
2023-04-18T21:46:17.546Z,14.02
2023-04-18T21:48:45.955Z,15.32
2023-04-18T21:51:14.468Z,13.50
2023-04-18T21:53:42.549Z,12.93
2023-04-18T21:56:10.004Z,13.87
2023-04-18T21:58:37.637Z,13.75
2023-04-18T22:01:05.303Z,13.07
2023-04-18T22:03:34.241Z,14.00
2023-04-18T22:06:02.101Z,10.95
2023-04-18T22:08:31.041Z,13.00
2023-04-18T22:10:59.411Z,14.15
2023-04-18T22:13:30.231Z,14.50
2023-04-18T22:15:58.387Z,12.25
2023-04-18T22:18:25.928Z,16.48
2023-04-18T22:20:53.855Z,12.33
2023-04-18T22:23:21.470Z,14.38
2023-04-18T22:25:49.118Z,14.20
2023-04-18T22:28:16.837Z,11.27
2023-04-18T22:30:44.336Z,14.70
2023-04-18T22:33:12.051Z,12.53
2023-04-18T22:35:39.622Z,13.43
2023-04-18T22:38:07.054Z,11.30
2023-04-18T22:40:34.559Z,11.30
2023-04-18T22:43:01.971Z,11.23
2023-04-18T22:45:29.464Z,12.63
2023-04-18T22:47:57.080Z,12.52
2023-04-18T22:50:24.590Z,11.88
2023-04-18T22:52:52.101Z,13.48
2023-04-18T22:55:20.275Z,11.25
2023-04-18T22:57:47.706Z,11.77
2023-04-18T23:00:15.433Z,12.55
2023-04-18T23:02:43.155Z,12.10
2023-04-18T23:05:11.624Z,14.38
2023-04-18T23:07:39.203Z,13.68
2023-04-18T23:10:07.075Z,13.73
2023-04-18T23:12:34.540Z,10.95
2023-04-18T23:15:02.109Z,14.77
2023-04-18T23:17:30.086Z,16.02
2023-04-18T23:19:57.538Z,15.13
2023-04-18T23:22:25.152Z,15.37
2023-04-18T23:24:52.681Z,13.23
2023-04-18T23:27:20.252Z,13.82
2023-04-18T23:29:48.791Z,13.57
2023-04-18T23:32:16.380Z,13.43
2023-04-18T23:34:44.789Z,13.47
2023-04-18T23:37:12.292Z,12.98
2023-04-18T23:39:39.697Z,16.25
2023-04-18T23:42:07.331Z,12.45
2023-04-18T23:44:34.929Z,13.48
2023-04-18T23:47:02.704Z,12.83
2023-04-18T23:49:30.245Z,12.35
2023-04-18T23:51:58.455Z,15.43
2023-04-18T23:54:26.040Z,14.25
2023-04-18T23:56:53.509Z,13.65
2023-04-18T23:59:21.068Z,14.20
